sensor_id;sensor_type;location;lat;lon;timestamp;P1;durP1;ratioP1;P2;durP2;ratioP2
4232;SDS011;2130;48.472;11.934;2022-08-23T00:01:16;70.67;;;4.97;;
4232;SDS011;2130;48.472;11.934;2022-08-23T00:03:49;67.30;;;4.57;;
4232;SDS011;2130;48.472;11.934;2022-08-23T00:06:18;67.00;;;4.60;;
4232;SDS011;2130;48.472;11.934;2022-08-23T00:08:48;67.13;;;4.40;;
4232;SDS011;2130;48.472;11.934;2022-08-23T00:11:26;68.80;;;4.57;;
4232;SDS011;2130;48.472;11.934;2022-08-23T00:13:57;67.60;;;4.60;;
4232;SDS011;2130;48.472;11.934;2022-08-23T00:16:27;68.30;;;5.43;;
4232;SDS011;2130;48.472;11.934;2022-08-23T00:18:56;68.37;;;4.60;;
4232;SDS011;2130;48.472;11.934;2022-08-23T00:21:24;71.53;;;4.33;;
4232;SDS011;2130;48.472;11.934;2022-08-23T00:23:54;68.47;;;4.63;;
4232;SDS011;2130;48.472;11.934;2022-08-23T00:26:23;70.60;;;4.70;;
4232;SDS011;2130;48.472;11.934;2022-08-23T00:28:52;69.33;;;5.07;;
4232;SDS011;2130;48.472;11.934;2022-08-23T00:31:20;67.00;;;4.17;;
4232;SDS011;2130;48.472;11.934;2022-08-23T00:33:49;69.77;;;4.70;;
4232;SDS011;2130;48.472;11.934;2022-08-23T00:36:17;68.60;;;4.80;;
4232;SDS011;2130;48.472;11.934;2022-08-23T00:38:45;66.90;;;4.20;;
4232;SDS011;2130;48.472;11.934;2022-08-23T00:41:13;67.17;;;4.50;;
4232;SDS011;2130;48.472;11.934;2022-08-23T00:43:41;68.67;;;4.73;;
4232;SDS011;2130;48.472;11.934;2022-08-23T00:46:32;67.67;;;4.60;;
4232;SDS011;2130;48.472;11.934;2022-08-23T00:49:23;67.80;;;4.70;;
4232;SDS011;2130;48.472;11.934;2022-08-23T00:51:54;67.67;;;4.67;;
4232;SDS011;2130;48.472;11.934;2022-08-23T00:54:25;70.97;;;4.70;;
4232;SDS011;2130;48.472;11.934;2022-08-23T00:56:55;68.13;;;4.70;;
4232;SDS011;2130;48.472;11.934;2022-08-23T01:02:19;68.97;;;4.83;;
4232;SDS011;2130;48.472;11.934;2022-08-23T01:04:50;66.90;;;4.30;;
4232;SDS011;2130;48.472;11.934;2022-08-23T01:07:31;68.70;;;4.80;;
4232;SDS011;2130;48.472;11.934;2022-08-23T01:10:06;67.67;;;4.80;;
4232;SDS011;2130;48.472;11.934;2022-08-23T01:12:44;68.00;;;5.17;;
4232;SDS011;2130;48.472;11.934;2022-08-23T01:15:18;67.27;;;5.00;;
4232;SDS011;2130;48.472;11.934;2022-08-23T01:17:51;68.77;;;4.90;;
4232;SDS011;2130;48.472;11.934;2022-08-23T01:20:22;71.90;;;5.07;;
4232;SDS011;2130;48.472;11.934;2022-08-23T01:22:55;67.37;;;5.10;;
4232;SDS011;2130;48.472;11.934;2022-08-23T01:25:28;67.80;;;4.70;;
4232;SDS011;2130;48.472;11.934;2022-08-23T01:27:58;68.47;;;5.20;;
4232;SDS011;2130;48.472;11.934;2022-08-23T01:30:28;68.97;;;5.00;;
4232;SDS011;2130;48.472;11.934;2022-08-23T01:32:59;69.10;;;4.97;;
4232;SDS011;2130;48.472;11.934;2022-08-23T01:35:30;69.93;;;5.47;;
4232;SDS011;2130;48.472;11.934;2022-08-23T01:38:04;67.53;;;5.23;;
4232;SDS011;2130;48.472;11.934;2022-08-23T01:40:34;67.77;;;4.73;;
4232;SDS011;2130;48.472;11.934;2022-08-23T01:43:04;69.80;;;5.47;;
4232;SDS011;2130;48.472;11.934;2022-08-23T01:45:33;68.77;;;5.40;;
4232;SDS011;2130;48.472;11.934;2022-08-23T01:48:05;68.07;;;4.73;;
4232;SDS011;2130;48.472;11.934;2022-08-23T01:50:33;67.87;;;5.17;;
4232;SDS011;2130;48.472;11.934;2022-08-23T01:53:07;68.90;;;5.70;;
4232;SDS011;2130;48.472;11.934;2022-08-23T01:55:39;67.57;;;5.20;;
4232;SDS011;2130;48.472;11.934;2022-08-23T01:58:07;71.13;;;5.90;;
4232;SDS011;2130;48.472;11.934;2022-08-23T02:00:37;67.87;;;5.27;;
4232;SDS011;2130;48.472;11.934;2022-08-23T02:03:06;69.40;;;5.57;;
4232;SDS011;2130;48.472;11.934;2022-08-23T02:05:35;68.80;;;5.80;;
4232;SDS011;2130;48.472;11.934;2022-08-23T02:08:04;72.00;;;5.77;;
4232;SDS011;2130;48.472;11.934;2022-08-23T02:10:50;69.13;;;5.40;;
4232;SDS011;2130;48.472;11.934;2022-08-23T02:13:19;67.80;;;5.00;;
4232;SDS011;2130;48.472;11.934;2022-08-23T02:15:47;68.00;;;5.30;;
4232;SDS011;2130;48.472;11.934;2022-08-23T02:18:17;68.80;;;4.70;;
4232;SDS011;2130;48.472;11.934;2022-08-23T02:20:47;67.27;;;5.20;;
4232;SDS011;2130;48.472;11.934;2022-08-23T02:23:17;67.67;;;5.20;;
4232;SDS011;2130;48.472;11.934;2022-08-23T02:25:46;67.13;;;5.10;;
4232;SDS011;2130;48.472;11.934;2022-08-23T02:28:18;68.07;;;5.57;;
4232;SDS011;2130;48.472;11.934;2022-08-23T02:30:47;68.40;;;5.50;;
4232;SDS011;2130;48.472;11.934;2022-08-23T02:33:15;73.10;;;5.30;;
4232;SDS011;2130;48.472;11.934;2022-08-23T02:35:46;66.97;;;5.30;;
4232;SDS011;2130;48.472;11.934;2022-08-23T02:38:16;67.60;;;5.27;;
4232;SDS011;2130;48.472;11.934;2022-08-23T02:40:44;67.80;;;5.23;;
4232;SDS011;2130;48.472;11.934;2022-08-23T02:43:20;68.07;;;5.10;;
4232;SDS011;2130;48.472;11.934;2022-08-23T02:45:49;68.93;;;5.03;;
4232;SDS011;2130;48.472;11.934;2022-08-23T02:48:17;66.60;;;4.97;;
4232;SDS011;2130;48.472;11.934;2022-08-23T02:50:57;67.90;;;4.80;;
4232;SDS011;2130;48.472;11.934;2022-08-23T02:53:26;68.17;;;5.30;;
4232;SDS011;2130;48.472;11.934;2022-08-23T02:55:55;67.40;;;5.33;;
4232;SDS011;2130;48.472;11.934;2022-08-23T02:58:25;69.03;;;5.20;;
4232;SDS011;2130;48.472;11.934;2022-08-23T03:00:53;68.37;;;4.90;;
4232;SDS011;2130;48.472;11.934;2022-08-23T03:03:22;67.37;;;4.70;;
4232;SDS011;2130;48.472;11.934;2022-08-23T03:05:51;69.20;;;5.30;;
4232;SDS011;2130;48.472;11.934;2022-08-23T03:08:20;67.43;;;4.87;;
4232;SDS011;2130;48.472;11.934;2022-08-23T03:10:50;67.63;;;5.10;;
4232;SDS011;2130;48.472;11.934;2022-08-23T03:13:19;66.57;;;4.53;;
4232;SDS011;2130;48.472;11.934;2022-08-23T03:15:50;67.67;;;5.47;;
4232;SDS011;2130;48.472;11.934;2022-08-23T03:18:18;67.20;;;4.80;;
4232;SDS011;2130;48.472;11.934;2022-08-23T03:20:46;66.67;;;4.80;;
4232;SDS011;2130;48.472;11.934;2022-08-23T03:23:15;67.20;;;5.03;;
4232;SDS011;2130;48.472;11.934;2022-08-23T03:25:43;67.90;;;4.80;;
4232;SDS011;2130;48.472;11.934;2022-08-23T03:28:21;66.47;;;4.10;;
4232;SDS011;2130;48.472;11.934;2022-08-23T03:30:51;67.17;;;5.10;;
4232;SDS011;2130;48.472;11.934;2022-08-23T03:33:20;67.07;;;4.87;;
4232;SDS011;2130;48.472;11.934;2022-08-23T03:35:48;66.87;;;4.60;;
4232;SDS011;2130;48.472;11.934;2022-08-23T03:38:17;67.77;;;4.80;;
4232;SDS011;2130;48.472;11.934;2022-08-23T03:40:46;67.67;;;4.97;;
4232;SDS011;2130;48.472;11.934;2022-08-23T03:43:17;65.97;;;4.63;;
4232;SDS011;2130;48.472;11.934;2022-08-23T03:45:46;67.47;;;4.33;;
4232;SDS011;2130;48.472;11.934;2022-08-23T03:48:15;66.80;;;4.50;;
4232;SDS011;2130;48.472;11.934;2022-08-23T03:50:44;67.00;;;4.47;;
4232;SDS011;2130;48.472;11.934;2022-08-23T03:53:13;68.37;;;4.70;;
4232;SDS011;2130;48.472;11.934;2022-08-23T03:55:43;67.80;;;5.27;;
4232;SDS011;2130;48.472;11.934;2022-08-23T03:58:15;68.20;;;5.00;;
4232;SDS011;2130;48.472;11.934;2022-08-23T04:00:43;67.53;;;4.93;;
4232;SDS011;2130;48.472;11.934;2022-08-23T04:03:12;66.27;;;4.90;;
4232;SDS011;2130;48.472;11.934;2022-08-23T04:06:02;67.20;;;4.87;;
4232;SDS011;2130;48.472;11.934;2022-08-23T04:08:31;67.67;;;4.77;;
4232;SDS011;2130;48.472;11.934;2022-08-23T04:11:02;67.27;;;4.80;;
4232;SDS011;2130;48.472;11.934;2022-08-23T04:13:32;69.70;;;5.23;;
4232;SDS011;2130;48.472;11.934;2022-08-23T04:16:01;68.20;;;6.10;;
4232;SDS011;2130;48.472;11.934;2022-08-23T04:18:31;66.83;;;5.00;;
4232;SDS011;2130;48.472;11.934;2022-08-23T04:21:03;66.80;;;4.93;;
4232;SDS011;2130;48.472;11.934;2022-08-23T04:23:34;69.50;;;5.40;;
4232;SDS011;2130;48.472;11.934;2022-08-23T04:26:02;68.47;;;5.23;;
4232;SDS011;2130;48.472;11.934;2022-08-23T04:28:35;68.50;;;5.40;;
4232;SDS011;2130;48.472;11.934;2022-08-23T04:31:03;67.00;;;4.70;;
4232;SDS011;2130;48.472;11.934;2022-08-23T04:33:33;67.60;;;5.43;;
4232;SDS011;2130;48.472;11.934;2022-08-23T04:36:08;67.00;;;5.50;;
4232;SDS011;2130;48.472;11.934;2022-08-23T04:38:37;67.87;;;5.00;;
4232;SDS011;2130;48.472;11.934;2022-08-23T04:41:06;67.77;;;5.47;;
4232;SDS011;2130;48.472;11.934;2022-08-23T04:43:54;70.00;;;5.90;;
4232;SDS011;2130;48.472;11.934;2022-08-23T04:46:24;68.07;;;5.33;;
4232;SDS011;2130;48.472;11.934;2022-08-23T04:48:53;67.10;;;5.60;;
4232;SDS011;2130;48.472;11.934;2022-08-23T04:51:24;67.20;;;5.13;;
4232;SDS011;2130;48.472;11.934;2022-08-23T04:53:52;68.10;;;5.87;;
4232;SDS011;2130;48.472;11.934;2022-08-23T04:56:39;67.20;;;5.50;;
4232;SDS011;2130;48.472;11.934;2022-08-23T04:59:08;70.50;;;5.50;;
4232;SDS011;2130;48.472;11.934;2022-08-23T05:01:40;67.87;;;5.60;;
4232;SDS011;2130;48.472;11.934;2022-08-23T05:04:09;67.90;;;6.13;;
4232;SDS011;2130;48.472;11.934;2022-08-23T05:06:40;67.17;;;5.30;;
4232;SDS011;2130;48.472;11.934;2022-08-23T05:09:08;68.60;;;5.70;;
4232;SDS011;2130;48.472;11.934;2022-08-23T05:11:36;68.50;;;4.90;;
4232;SDS011;2130;48.472;11.934;2022-08-23T05:14:07;67.47;;;6.07;;
4232;SDS011;2130;48.472;11.934;2022-08-23T05:16:35;68.07;;;5.80;;
4232;SDS011;2130;48.472;11.934;2022-08-23T05:22:06;68.07;;;6.03;;
4232;SDS011;2130;48.472;11.934;2022-08-23T05:25:00;67.97;;;6.17;;
4232;SDS011;2130;48.472;11.934;2022-08-23T05:27:28;68.50;;;6.53;;
4232;SDS011;2130;48.472;11.934;2022-08-23T05:29:57;69.80;;;6.07;;
4232;SDS011;2130;48.472;11.934;2022-08-23T05:32:26;69.00;;;6.70;;
4232;SDS011;2130;48.472;11.934;2022-08-23T05:34:59;67.80;;;5.70;;
4232;SDS011;2130;48.472;11.934;2022-08-23T05:37:28;67.77;;;6.00;;
4232;SDS011;2130;48.472;11.934;2022-08-23T05:39:56;68.80;;;6.43;;
4232;SDS011;2130;48.472;11.934;2022-08-23T05:42:27;69.80;;;6.20;;
4232;SDS011;2130;48.472;11.934;2022-08-23T05:44:55;73.07;;;6.57;;
4232;SDS011;2130;48.472;11.934;2022-08-23T05:47:25;68.90;;;6.00;;
4232;SDS011;2130;48.472;11.934;2022-08-23T05:50:22;69.03;;;6.40;;
4232;SDS011;2130;48.472;11.934;2022-08-23T05:52:52;69.30;;;6.40;;
4232;SDS011;2130;48.472;11.934;2022-08-23T05:55:20;71.03;;;6.53;;
4232;SDS011;2130;48.472;11.934;2022-08-23T05:58:19;70.50;;;6.03;;
4232;SDS011;2130;48.472;11.934;2022-08-23T06:00:48;67.60;;;5.70;;
4232;SDS011;2130;48.472;11.934;2022-08-23T06:03:18;69.30;;;6.40;;
4232;SDS011;2130;48.472;11.934;2022-08-23T06:05:47;67.67;;;6.23;;
4232;SDS011;2130;48.472;11.934;2022-08-23T06:08:16;69.00;;;6.50;;
4232;SDS011;2130;48.472;11.934;2022-08-23T06:10:44;69.70;;;7.00;;
4232;SDS011;2130;48.472;11.934;2022-08-23T06:13:21;69.57;;;6.30;;
4232;SDS011;2130;48.472;11.934;2022-08-23T06:15:49;73.57;;;6.90;;
4232;SDS011;2130;48.472;11.934;2022-08-23T06:18:17;69.17;;;6.67;;
4232;SDS011;2130;48.472;11.934;2022-08-23T06:20:47;68.90;;;6.20;;
4232;SDS011;2130;48.472;11.934;2022-08-23T06:23:23;67.90;;;5.53;;
4232;SDS011;2130;48.472;11.934;2022-08-23T06:25:52;69.87;;;6.23;;
4232;SDS011;2130;48.472;11.934;2022-08-23T06:28:21;69.80;;;6.07;;
4232;SDS011;2130;48.472;11.934;2022-08-23T06:30:52;69.07;;;6.40;;
4232;SDS011;2130;48.472;11.934;2022-08-23T06:33:28;70.13;;;6.83;;
4232;SDS011;2130;48.472;11.934;2022-08-23T06:36:26;69.20;;;6.10;;
4232;SDS011;2130;48.472;11.934;2022-08-23T06:39:13;70.40;;;6.27;;
4232;SDS011;2130;48.472;11.934;2022-08-23T06:42:05;68.70;;;6.00;;
4232;SDS011;2130;48.472;11.934;2022-08-23T06:45:00;68.97;;;6.20;;
4232;SDS011;2130;48.472;11.934;2022-08-23T06:47:36;69.13;;;6.50;;
4232;SDS011;2130;48.472;11.934;2022-08-23T06:50:05;69.60;;;6.17;;
4232;SDS011;2130;48.472;11.934;2022-08-23T06:53:07;68.57;;;5.53;;
4232;SDS011;2130;48.472;11.934;2022-08-23T06:55:50;71.73;;;6.20;;
4232;SDS011;2130;48.472;11.934;2022-08-23T06:58:25;71.07;;;7.03;;
4232;SDS011;2130;48.472;11.934;2022-08-23T07:01:12;68.40;;;5.40;;
4232;SDS011;2130;48.472;11.934;2022-08-23T07:04:17;70.20;;;5.97;;
4232;SDS011;2130;48.472;11.934;2022-08-23T07:07:12;78.68;;;7.97;;
4232;SDS011;2130;48.472;11.934;2022-08-23T07:09:40;68.90;;;5.40;;
4232;SDS011;2130;48.472;11.934;2022-08-23T07:12:11;69.40;;;5.83;;
4232;SDS011;2130;48.472;11.934;2022-08-23T07:14:41;69.37;;;5.87;;
4232;SDS011;2130;48.472;11.934;2022-08-23T07:17:11;68.67;;;5.30;;
4232;SDS011;2130;48.472;11.934;2022-08-23T07:19:40;68.77;;;5.83;;
4232;SDS011;2130;48.472;11.934;2022-08-23T07:22:09;69.30;;;5.50;;
4232;SDS011;2130;48.472;11.934;2022-08-23T07:24:38;68.80;;;5.60;;
4232;SDS011;2130;48.472;11.934;2022-08-23T07:27:09;68.03;;;4.90;;
4232;SDS011;2130;48.472;11.934;2022-08-23T07:29:45;67.50;;;4.93;;
4232;SDS011;2130;48.472;11.934;2022-08-23T07:32:14;67.60;;;5.00;;
4232;SDS011;2130;48.472;11.934;2022-08-23T07:34:45;70.60;;;5.30;;
4232;SDS011;2130;48.472;11.934;2022-08-23T07:37:13;67.40;;;5.00;;
4232;SDS011;2130;48.472;11.934;2022-08-23T07:39:43;68.53;;;4.90;;
4232;SDS011;2130;48.472;11.934;2022-08-23T07:42:13;68.27;;;5.60;;
4232;SDS011;2130;48.472;11.934;2022-08-23T07:44:51;66.97;;;4.40;;
4232;SDS011;2130;48.472;11.934;2022-08-23T07:47:24;68.00;;;5.00;;
4232;SDS011;2130;48.472;11.934;2022-08-23T07:49:55;68.57;;;5.07;;
4232;SDS011;2130;48.472;11.934;2022-08-23T07:52:24;68.93;;;4.70;;
4232;SDS011;2130;48.472;11.934;2022-08-23T07:54:52;68.73;;;5.07;;
4232;SDS011;2130;48.472;11.934;2022-08-23T07:57:30;71.40;;;4.73;;
4232;SDS011;2130;48.472;11.934;2022-08-23T08:00:06;68.53;;;5.17;;
4232;SDS011;2130;48.472;11.934;2022-08-23T08:03:01;69.73;;;5.00;;
4232;SDS011;2130;48.472;11.934;2022-08-23T08:08:38;69.40;;;5.67;;
4232;SDS011;2130;48.472;11.934;2022-08-23T08:11:08;70.33;;;5.80;;
4232;SDS011;2130;48.472;11.934;2022-08-23T08:13:39;69.20;;;5.27;;
4232;SDS011;2130;48.472;11.934;2022-08-23T08:16:09;71.10;;;5.80;;
4232;SDS011;2130;48.472;11.934;2022-08-23T08:18:49;69.20;;;5.30;;
4232;SDS011;2130;48.472;11.934;2022-08-23T08:21:36;70.17;;;4.93;;
4232;SDS011;2130;48.472;11.934;2022-08-23T08:24:42;69.47;;;4.70;;
4232;SDS011;2130;48.472;11.934;2022-08-23T08:27:12;67.30;;;4.40;;
4232;SDS011;2130;48.472;11.934;2022-08-23T08:29:42;69.93;;;5.47;;
4232;SDS011;2130;48.472;11.934;2022-08-23T08:32:11;67.87;;;4.47;;
4232;SDS011;2130;48.472;11.934;2022-08-23T08:34:40;71.15;;;4.90;;
4232;SDS011;2130;48.472;11.934;2022-08-23T08:37:09;74.57;;;5.47;;
4232;SDS011;2130;48.472;11.934;2022-08-23T08:39:37;69.10;;;4.70;;
4232;SDS011;2130;48.472;11.934;2022-08-23T08:42:18;68.23;;;4.77;;
4232;SDS011;2130;48.472;11.934;2022-08-23T08:44:54;71.23;;;5.20;;
4232;SDS011;2130;48.472;11.934;2022-08-23T08:47:33;67.80;;;4.53;;
4232;SDS011;2130;48.472;11.934;2022-08-23T08:50:06;67.40;;;4.10;;
4232;SDS011;2130;48.472;11.934;2022-08-23T08:52:38;69.37;;;4.80;;
4232;SDS011;2130;48.472;11.934;2022-08-23T08:55:16;68.70;;;4.83;;
4232;SDS011;2130;48.472;11.934;2022-08-23T08:58:06;71.30;;;4.53;;
4232;SDS011;2130;48.472;11.934;2022-08-23T09:00:44;67.93;;;4.80;;
4232;SDS011;2130;48.472;11.934;2022-08-23T09:03:13;68.30;;;4.27;;
4232;SDS011;2130;48.472;11.934;2022-08-23T09:05:48;67.57;;;4.10;;
4232;SDS011;2130;48.472;11.934;2022-08-23T09:08:34;68.30;;;4.07;;
4232;SDS011;2130;48.472;11.934;2022-08-23T09:11:12;67.57;;;4.10;;
4232;SDS011;2130;48.472;11.934;2022-08-23T09:16:47;67.80;;;4.30;;
4232;SDS011;2130;48.472;11.934;2022-08-23T09:19:19;68.07;;;4.27;;
4232;SDS011;2130;48.472;11.934;2022-08-23T09:21:53;67.90;;;3.60;;
4232;SDS011;2130;48.472;11.934;2022-08-23T09:24:24;68.47;;;3.90;;
4232;SDS011;2130;48.472;11.934;2022-08-23T09:26:59;69.70;;;3.80;;
4232;SDS011;2130;48.472;11.934;2022-08-23T09:29:30;69.90;;;4.07;;
4232;SDS011;2130;48.472;11.934;2022-08-23T09:32:02;68.10;;;3.70;;
4232;SDS011;2130;48.472;11.934;2022-08-23T09:34:39;67.97;;;3.63;;
4232;SDS011;2130;48.472;11.934;2022-08-23T09:37:13;67.87;;;4.10;;
4232;SDS011;2130;48.472;11.934;2022-08-23T09:39:44;68.13;;;3.97;;
4232;SDS011;2130;48.472;11.934;2022-08-23T09:42:28;72.77;;;4.30;;
4232;SDS011;2130;48.472;11.934;2022-08-23T09:44:58;72.80;;;4.10;;
4232;SDS011;2130;48.472;11.934;2022-08-23T09:47:32;67.90;;;3.97;;
4232;SDS011;2130;48.472;11.934;2022-08-23T09:50:15;67.23;;;3.80;;
4232;SDS011;2130;48.472;11.934;2022-08-23T09:52:48;70.00;;;4.63;;
4232;SDS011;2130;48.472;11.934;2022-08-23T09:55:25;67.73;;;3.90;;
4232;SDS011;2130;48.472;11.934;2022-08-23T09:57:56;67.77;;;3.80;;
4232;SDS011;2130;48.472;11.934;2022-08-23T10:00:27;68.87;;;3.87;;
4232;SDS011;2130;48.472;11.934;2022-08-23T10:05:59;69.00;;;3.70;;
4232;SDS011;2130;48.472;11.934;2022-08-23T10:08:33;69.57;;;3.47;;
4232;SDS011;2130;48.472;11.934;2022-08-23T10:11:11;68.77;;;3.30;;
4232;SDS011;2130;48.472;11.934;2022-08-23T10:13:43;67.87;;;3.70;;
4232;SDS011;2130;48.472;11.934;2022-08-23T10:16:13;67.83;;;3.50;;
4232;SDS011;2130;48.472;11.934;2022-08-23T10:18:59;68.23;;;3.50;;
4232;SDS011;2130;48.472;11.934;2022-08-23T10:21:36;68.53;;;3.40;;
4232;SDS011;2130;48.472;11.934;2022-08-23T10:27:01;68.40;;;3.67;;
4232;SDS011;2130;48.472;11.934;2022-08-23T10:29:57;70.40;;;3.77;;
4232;SDS011;2130;48.472;11.934;2022-08-23T10:32:30;68.10;;;3.83;;
4232;SDS011;2130;48.472;11.934;2022-08-23T10:35:14;69.40;;;3.50;;
4232;SDS011;2130;48.472;11.934;2022-08-23T10:37:53;67.77;;;3.80;;
4232;SDS011;2130;48.472;11.934;2022-08-23T10:40:30;74.63;;;3.43;;
4232;SDS011;2130;48.472;11.934;2022-08-23T10:43:07;69.33;;;3.90;;
4232;SDS011;2130;48.472;11.934;2022-08-23T10:45:43;69.20;;;3.40;;
4232;SDS011;2130;48.472;11.934;2022-08-23T10:48:24;68.40;;;3.80;;
4232;SDS011;2130;48.472;11.934;2022-08-23T10:50:58;68.60;;;3.90;;
4232;SDS011;2130;48.472;11.934;2022-08-23T10:53:34;67.57;;;3.30;;
4232;SDS011;2130;48.472;11.934;2022-08-23T10:56:05;67.57;;;3.03;;
4232;SDS011;2130;48.472;11.934;2022-08-23T10:58:40;68.27;;;3.20;;
4232;SDS011;2130;48.472;11.934;2022-08-23T11:01:15;68.27;;;3.20;;
4232;SDS011;2130;48.472;11.934;2022-08-23T11:03:49;67.60;;;3.03;;
4232;SDS011;2130;48.472;11.934;2022-08-23T11:06:27;68.57;;;3.70;;
4232;SDS011;2130;48.472;11.934;2022-08-23T11:09:09;69.33;;;3.17;;
4232;SDS011;2130;48.472;11.934;2022-08-23T11:12:09;69.90;;;3.17;;
4232;SDS011;2130;48.472;11.934;2022-08-23T11:14:45;68.27;;;3.50;;
4232;SDS011;2130;48.472;11.934;2022-08-23T11:17:23;68.07;;;3.03;;
4232;SDS011;2130;48.472;11.934;2022-08-23T11:19:53;67.60;;;2.90;;
4232;SDS011;2130;48.472;11.934;2022-08-23T11:22:26;67.67;;;2.90;;
4232;SDS011;2130;48.472;11.934;2022-08-23T11:24:58;67.97;;;3.20;;
4232;SDS011;2130;48.472;11.934;2022-08-23T11:27:36;70.63;;;3.53;;
4232;SDS011;2130;48.472;11.934;2022-08-23T11:33:14;67.50;;;3.07;;
4232;SDS011;2130;48.472;11.934;2022-08-23T11:35:47;67.37;;;2.83;;
4232;SDS011;2130;48.472;11.934;2022-08-23T11:38:58;67.50;;;3.10;;
4232;SDS011;2130;48.472;11.934;2022-08-23T11:41:26;67.97;;;3.30;;
4232;SDS011;2130;48.472;11.934;2022-08-23T11:44:15;68.43;;;3.03;;
4232;SDS011;2130;48.472;11.934;2022-08-23T11:46:59;68.90;;;3.37;;
4232;SDS011;2130;48.472;11.934;2022-08-23T11:52:36;67.77;;;3.60;;
4232;SDS011;2130;48.472;11.934;2022-08-23T11:55:47;67.37;;;3.20;;
4232;SDS011;2130;48.472;11.934;2022-08-23T11:58:25;68.23;;;3.63;;
4232;SDS011;2130;48.472;11.934;2022-08-23T12:01:05;67.87;;;3.30;;
4232;SDS011;2130;48.472;11.934;2022-08-23T12:03:35;67.07;;;3.07;;
4232;SDS011;2130;48.472;11.934;2022-08-23T12:06:13;68.00;;;3.20;;
4232;SDS011;2130;48.472;11.934;2022-08-23T12:09:00;68.00;;;3.20;;
4232;SDS011;2130;48.472;11.934;2022-08-23T12:14:48;67.00;;;2.93;;
4232;SDS011;2130;48.472;11.934;2022-08-23T12:20:24;67.93;;;3.00;;
4232;SDS011;2130;48.472;11.934;2022-08-23T12:22:59;68.03;;;3.10;;
4232;SDS011;2130;48.472;11.934;2022-08-23T12:25:33;67.93;;;2.60;;
4232;SDS011;2130;48.472;11.934;2022-08-23T12:28:05;67.57;;;2.60;;
4232;SDS011;2130;48.472;11.934;2022-08-23T12:30:40;72.63;;;3.00;;
4232;SDS011;2130;48.472;11.934;2022-08-23T12:33:26;67.77;;;3.00;;
4232;SDS011;2130;48.472;11.934;2022-08-23T12:36:01;69.13;;;3.00;;
4232;SDS011;2130;48.472;11.934;2022-08-23T12:38:44;68.60;;;2.90;;
4232;SDS011;2130;48.472;11.934;2022-08-23T12:41:21;69.00;;;3.20;;
4232;SDS011;2130;48.472;11.934;2022-08-23T12:43:55;68.00;;;2.70;;
4232;SDS011;2130;48.472;11.934;2022-08-23T12:46:32;67.10;;;2.90;;
4232;SDS011;2130;48.472;11.934;2022-08-23T12:49:03;76.30;;;3.43;;
4232;SDS011;2130;48.472;11.934;2022-08-23T12:51:38;68.27;;;2.77;;
4232;SDS011;2130;48.472;11.934;2022-08-23T12:54:12;68.47;;;2.70;;
4232;SDS011;2130;48.472;11.934;2022-08-23T12:56:43;67.57;;;2.67;;
4232;SDS011;2130;48.472;11.934;2022-08-23T12:59:23;71.37;;;2.80;;
4232;SDS011;2130;48.472;11.934;2022-08-23T13:02:07;67.10;;;2.70;;
4232;SDS011;2130;48.472;11.934;2022-08-23T13:04:38;67.67;;;2.90;;
4232;SDS011;2130;48.472;11.934;2022-08-23T13:07:08;67.50;;;2.60;;
4232;SDS011;2130;48.472;11.934;2022-08-23T13:09:38;68.10;;;2.70;;
4232;SDS011;2130;48.472;11.934;2022-08-23T13:12:10;69.00;;;2.90;;
4232;SDS011;2130;48.472;11.934;2022-08-23T13:14:43;68.67;;;2.80;;
4232;SDS011;2130;48.472;11.934;2022-08-23T13:17:15;69.50;;;2.90;;
4232;SDS011;2130;48.472;11.934;2022-08-23T13:19:48;69.40;;;2.80;;
4232;SDS011;2130;48.472;11.934;2022-08-23T13:22:19;66.97;;;2.60;;
4232;SDS011;2130;48.472;11.934;2022-08-23T13:27:58;72.80;;;3.33;;
4232;SDS011;2130;48.472;11.934;2022-08-23T13:30:29;68.17;;;2.90;;
4232;SDS011;2130;48.472;11.934;2022-08-23T13:33:19;67.73;;;2.93;;
4232;SDS011;2130;48.472;11.934;2022-08-23T13:35:49;67.30;;;2.70;;
4232;SDS011;2130;48.472;11.934;2022-08-23T13:38:20;67.30;;;2.60;;
4232;SDS011;2130;48.472;11.934;2022-08-23T13:40:53;67.57;;;2.90;;
4232;SDS011;2130;48.472;11.934;2022-08-23T13:43:23;67.77;;;3.07;;
4232;SDS011;2130;48.472;11.934;2022-08-23T13:45:53;67.60;;;2.70;;
4232;SDS011;2130;48.472;11.934;2022-08-23T13:48:24;67.80;;;3.30;;
4232;SDS011;2130;48.472;11.934;2022-08-23T13:51:06;68.60;;;3.10;;
4232;SDS011;2130;48.472;11.934;2022-08-23T13:53:46;67.67;;;3.30;;
4232;SDS011;2130;48.472;11.934;2022-08-23T13:56:14;68.60;;;2.87;;
4232;SDS011;2130;48.472;11.934;2022-08-23T13:58:50;69.37;;;2.87;;
4232;SDS011;2130;48.472;11.934;2022-08-23T14:01:20;67.60;;;2.83;;
4232;SDS011;2130;48.472;11.934;2022-08-23T14:03:50;68.37;;;3.10;;
4232;SDS011;2130;48.472;11.934;2022-08-23T14:06:18;69.50;;;2.90;;
4232;SDS011;2130;48.472;11.934;2022-08-23T14:08:46;68.93;;;3.13;;
4232;SDS011;2130;48.472;11.934;2022-08-23T14:11:14;68.17;;;3.07;;
4232;SDS011;2130;48.472;11.934;2022-08-23T14:13:43;69.00;;;3.00;;
4232;SDS011;2130;48.472;11.934;2022-08-23T14:16:13;68.50;;;3.20;;
4232;SDS011;2130;48.472;11.934;2022-08-23T14:19:06;67.60;;;3.07;;
4232;SDS011;2130;48.472;11.934;2022-08-23T14:21:56;68.17;;;3.30;;
4232;SDS011;2130;48.472;11.934;2022-08-23T14:24:25;68.27;;;3.30;;
4232;SDS011;2130;48.472;11.934;2022-08-23T14:26:53;68.70;;;3.20;;
4232;SDS011;2130;48.472;11.934;2022-08-23T14:29:22;73.00;;;3.30;;
4232;SDS011;2130;48.472;11.934;2022-08-23T14:31:53;69.00;;;3.00;;
4232;SDS011;2130;48.472;11.934;2022-08-23T14:34:23;70.43;;;3.10;;
4232;SDS011;2130;48.472;11.934;2022-08-23T14:36:51;68.43;;;3.20;;
4232;SDS011;2130;48.472;11.934;2022-08-23T14:39:40;73.57;;;3.40;;
4232;SDS011;2130;48.472;11.934;2022-08-23T14:42:08;68.30;;;2.80;;
4232;SDS011;2130;48.472;11.934;2022-08-23T14:44:36;68.47;;;3.10;;
4232;SDS011;2130;48.472;11.934;2022-08-23T14:47:04;68.23;;;3.40;;
4232;SDS011;2130;48.472;11.934;2022-08-23T14:49:34;67.47;;;3.00;;
4232;SDS011;2130;48.472;11.934;2022-08-23T14:52:02;70.10;;;3.53;;
4232;SDS011;2130;48.472;11.934;2022-08-23T14:54:30;67.70;;;3.10;;
4232;SDS011;2130;48.472;11.934;2022-08-23T14:56:59;68.97;;;3.50;;
4232;SDS011;2130;48.472;11.934;2022-08-23T14:59:27;68.07;;;3.07;;
4232;SDS011;2130;48.472;11.934;2022-08-23T15:01:55;70.20;;;3.40;;
4232;SDS011;2130;48.472;11.934;2022-08-23T15:04:24;68.00;;;2.90;;
4232;SDS011;2130;48.472;11.934;2022-08-23T15:07:01;67.87;;;3.03;;
4232;SDS011;2130;48.472;11.934;2022-08-23T15:09:44;68.27;;;3.07;;
4232;SDS011;2130;48.472;11.934;2022-08-23T15:12:12;67.67;;;3.07;;
4232;SDS011;2130;48.472;11.934;2022-08-23T15:15:00;67.10;;;2.80;;
4232;SDS011;2130;48.472;11.934;2022-08-23T15:17:29;69.30;;;4.13;;
4232;SDS011;2130;48.472;11.934;2022-08-23T15:19:57;68.03;;;3.30;;
4232;SDS011;2130;48.472;11.934;2022-08-23T15:22:27;68.30;;;3.10;;
4232;SDS011;2130;48.472;11.934;2022-08-23T15:24:55;67.67;;;3.20;;
4232;SDS011;2130;48.472;11.934;2022-08-23T15:27:23;67.97;;;3.37;;
4232;SDS011;2130;48.472;11.934;2022-08-23T15:29:52;68.47;;;3.40;;
4232;SDS011;2130;48.472;11.934;2022-08-23T15:32:20;67.90;;;3.10;;
4232;SDS011;2130;48.472;11.934;2022-08-23T15:34:48;68.00;;;3.20;;
4232;SDS011;2130;48.472;11.934;2022-08-23T15:37:17;68.97;;;3.30;;
4232;SDS011;2130;48.472;11.934;2022-08-23T15:39:48;69.73;;;2.90;;
4232;SDS011;2130;48.472;11.934;2022-08-23T15:42:17;68.03;;;3.20;;
4232;SDS011;2130;48.472;11.934;2022-08-23T15:44:46;69.10;;;3.00;;
4232;SDS011;2130;48.472;11.934;2022-08-23T15:47:17;67.00;;;3.20;;
4232;SDS011;2130;48.472;11.934;2022-08-23T15:49:48;67.90;;;3.00;;
4232;SDS011;2130;48.472;11.934;2022-08-23T15:52:17;68.60;;;3.00;;
4232;SDS011;2130;48.472;11.934;2022-08-23T15:54:47;68.13;;;3.07;;
4232;SDS011;2130;48.472;11.934;2022-08-23T15:57:17;67.80;;;3.00;;
4232;SDS011;2130;48.472;11.934;2022-08-23T15:59:48;69.30;;;3.17;;